createdAt,value
2018-12-04T00:00:37.121Z,1.93
2018-12-04T00:03:05.617Z,1.37
2018-12-04T00:05:34.028Z,2.23
2018-12-04T00:08:02.202Z,1.50
2018-12-04T00:10:30.270Z,2.00
2018-12-04T00:12:58.372Z,1.67
2018-12-04T00:15:26.506Z,2.33
2018-12-04T00:17:54.535Z,1.60
2018-12-04T00:20:22.579Z,2.00
2018-12-04T00:22:50.660Z,1.90
2018-12-04T00:25:18.716Z,2.10
2018-12-04T00:27:46.786Z,2.30
2018-12-04T00:30:14.871Z,1.87
2018-12-04T00:32:42.902Z,1.93
2018-12-04T00:35:11.011Z,2.50
2018-12-04T00:37:39.044Z,2.23
2018-12-04T00:40:07.775Z,1.97
2018-12-04T00:42:45.935Z,2.13
2018-12-04T00:45:13.988Z,2.60
2018-12-04T00:47:42.020Z,2.40
2018-12-04T00:50:10.135Z,2.33
2018-12-04T00:52:38.195Z,2.00
2018-12-04T00:55:06.694Z,2.40
2018-12-04T00:57:34.764Z,2.23
2018-12-04T01:00:06.493Z,2.63
2018-12-04T01:02:34.519Z,1.93
2018-12-04T01:05:02.627Z,3.33
2018-12-04T01:07:30.659Z,2.90
2018-12-04T01:09:58.771Z,2.63
2018-12-04T01:12:26.932Z,2.10
2018-12-04T01:14:55.298Z,2.67
2018-12-04T01:17:23.557Z,3.27
2018-12-04T01:19:51.593Z,2.87
2018-12-04T01:22:19.645Z,2.20
2018-12-04T01:24:47.719Z,2.33
2018-12-04T01:27:15.748Z,2.50
2018-12-04T01:29:43.778Z,2.47
2018-12-04T01:32:11.977Z,3.07
2018-12-04T01:34:40.012Z,2.23
2018-12-04T01:37:08.063Z,2.23
2018-12-04T01:39:36.359Z,2.63
2018-12-04T01:42:04.538Z,2.33
2018-12-04T01:44:32.670Z,2.63
2018-12-04T01:47:00.740Z,2.73
2018-12-04T01:49:28.806Z,2.90
2018-12-04T01:51:56.923Z,3.20
2018-12-04T01:54:24.967Z,3.13
2018-12-04T01:56:53.031Z,2.20
2018-12-04T01:59:21.143Z,2.73
2018-12-04T02:01:49.428Z,3.00
2018-12-04T02:04:17.469Z,2.33
2018-12-04T02:06:45.566Z,3.03
2018-12-04T02:09:14.678Z,2.80
2018-12-04T02:11:42.759Z,2.87
2018-12-04T02:14:10.900Z,3.10
2018-12-04T02:16:39.203Z,2.97
2018-12-04T02:19:07.284Z,3.17
2018-12-04T02:21:35.345Z,4.10
2018-12-04T02:24:03.384Z,2.80
2018-12-04T02:26:31.415Z,3.30
2018-12-04T02:28:59.458Z,3.73
2018-12-04T02:31:27.627Z,3.50
2018-12-04T02:33:55.928Z,3.47
2018-12-04T02:36:23.956Z,3.40
2018-12-04T02:38:52.142Z,3.03
2018-12-04T02:41:20.218Z,3.47
2018-12-04T02:43:48.264Z,2.53
2018-12-04T02:46:16.319Z,2.63
2018-12-04T02:48:44.381Z,3.03
2018-12-04T02:51:12.567Z,3.00
2018-12-04T02:53:40.625Z,3.73
2018-12-04T02:56:08.668Z,2.80
2018-12-04T02:58:36.772Z,2.63
2018-12-04T03:01:05.039Z,3.73
2018-12-04T03:03:33.071Z,3.03
2018-12-04T03:06:02.196Z,4.10
2018-12-04T03:08:30.295Z,3.33
2018-12-04T03:10:58.365Z,2.80
2018-12-04T03:13:26.461Z,2.50
2018-12-04T03:15:54.591Z,3.20
2018-12-04T03:18:22.674Z,3.43
2018-12-04T03:20:50.745Z,3.37
2018-12-04T03:23:18.888Z,3.03
2018-12-04T03:25:47.001Z,3.50
2018-12-04T03:28:15.032Z,3.30
2018-12-04T03:30:43.089Z,3.90
2018-12-04T03:33:13.129Z,3.13
2018-12-04T03:35:41.243Z,3.33
2018-12-04T03:38:09.322Z,3.57
2018-12-04T03:40:37.552Z,2.47
2018-12-04T03:43:05.813Z,2.33
2018-12-04T03:45:33.937Z,2.97
2018-12-04T03:48:02.060Z,2.93
2018-12-04T03:50:30.186Z,3.30
2018-12-04T03:52:58.351Z,2.80
2018-12-04T03:55:26.419Z,3.30
2018-12-04T03:57:54.500Z,3.90
2018-12-04T04:00:22.663Z,2.77
2018-12-04T04:02:50.712Z,2.80
2018-12-04T04:05:19.949Z,3.33
2018-12-04T04:07:48.264Z,3.57
2018-12-04T04:10:17.197Z,2.90
2018-12-04T04:12:45.437Z,3.37
2018-12-04T04:15:13.610Z,3.47
2018-12-04T04:17:41.664Z,3.40
2018-12-04T04:20:09.803Z,2.80
2018-12-04T04:22:37.834Z,3.50
2018-12-04T04:25:06.089Z,3.60
2018-12-04T04:27:34.159Z,2.70
2018-12-04T04:30:02.320Z,3.73
2018-12-04T04:32:30.364Z,3.47
2018-12-04T04:34:58.450Z,4.13
2018-12-04T04:37:26.495Z,3.80
2018-12-04T04:39:54.551Z,3.00
2018-12-04T04:42:22.611Z,3.07
2018-12-04T04:44:50.670Z,3.40
2018-12-04T04:47:18.724Z,2.97
2018-12-04T04:49:46.861Z,2.90
2018-12-04T04:52:14.919Z,2.80
2018-12-04T04:54:42.975Z,4.13
2018-12-04T04:57:11.015Z,4.00
2018-12-04T04:59:39.447Z,3.33
2018-12-04T05:02:07.507Z,3.43
2018-12-04T05:04:35.639Z,3.10
2018-12-04T05:07:03.803Z,3.73
2018-12-04T05:09:31.877Z,3.30
2018-12-04T05:11:59.994Z,3.83
2018-12-04T05:14:28.038Z,4.00
2018-12-04T05:16:56.291Z,3.03
2018-12-04T05:19:24.377Z,3.10
2018-12-04T05:21:52.438Z,3.80
2018-12-04T05:24:20.482Z,4.07
2018-12-04T05:26:48.598Z,3.50
2018-12-04T05:29:16.643Z,3.47
2018-12-04T05:31:44.692Z,3.00
2018-12-04T05:34:12.802Z,3.57
2018-12-04T05:36:40.874Z,3.73
2018-12-04T05:39:09.040Z,3.70
2018-12-04T05:41:38.068Z,4.37
2018-12-04T05:44:06.143Z,3.90
2018-12-04T05:46:34.261Z,4.13
2018-12-04T05:49:02.296Z,3.50
2018-12-04T05:51:30.323Z,4.13
2018-12-04T05:53:58.523Z,4.10
2018-12-04T05:56:26.652Z,3.60
2018-12-04T05:58:54.785Z,5.57
2018-12-04T06:01:22.943Z,4.73
2018-12-04T06:03:50.993Z,5.23
2018-12-04T06:06:19.167Z,4.70
2018-12-04T06:08:47.302Z,4.70
2018-12-04T06:11:15.482Z,4.43
2018-12-04T06:13:43.585Z,5.07
2018-12-04T06:16:11.659Z,5.13
2018-12-04T06:18:39.795Z,4.23
2018-12-04T06:23:59.916Z,4.70
2018-12-04T06:26:31.923Z,5.07
2018-12-04T06:28:59.898Z,4.87
2018-12-04T06:31:27.970Z,6.12
2018-12-04T06:33:56.116Z,5.07
2018-12-04T06:36:24.409Z,7.12
2018-12-04T06:38:52.759Z,5.97
2018-12-04T06:41:20.864Z,5.63
2018-12-04T06:43:48.975Z,4.87
2018-12-04T06:46:17.042Z,4.70
2018-12-04T06:48:45.088Z,5.23
2018-12-04T06:51:13.139Z,5.87
2018-12-04T06:53:41.190Z,6.90
2018-12-04T06:56:09.275Z,6.23
2018-12-04T06:58:37.462Z,6.70
2018-12-04T07:01:10.855Z,6.90
2018-12-04T07:03:39.023Z,6.67
2018-12-04T07:06:07.192Z,6.23
2018-12-04T07:08:35.331Z,7.37
2018-12-04T07:11:03.613Z,7.23
2018-12-04T07:13:31.758Z,6.10
2018-12-04T07:15:59.803Z,6.63
2018-12-04T07:18:27.889Z,6.03
2018-12-04T07:20:57.206Z,7.63
2018-12-04T07:23:25.298Z,8.37
2018-12-04T07:25:53.444Z,8.33
2018-12-04T07:28:21.531Z,7.10
2018-12-04T07:30:49.672Z,8.60
2018-12-04T07:33:17.896Z,6.13
2018-12-04T07:35:45.951Z,6.27
2018-12-04T07:38:14.158Z,6.50
2018-12-04T07:40:43.500Z,7.63
2018-12-04T07:43:14.609Z,7.90
2018-12-04T07:45:42.812Z,7.43
2018-12-04T07:48:12.383Z,5.97
2018-12-04T07:50:40.526Z,7.10
2018-12-04T07:53:08.590Z,6.50
2018-12-04T07:55:36.770Z,6.47
2018-12-04T07:58:04.856Z,5.40
2018-12-04T08:00:33.003Z,5.37
2018-12-04T08:03:01.061Z,6.47
2018-12-04T08:05:29.113Z,7.20
2018-12-04T08:10:44.107Z,8.50
2018-12-04T08:13:12.251Z,7.43
2018-12-04T08:15:40.347Z,7.67
2018-12-04T08:18:08.499Z,6.70
2018-12-04T08:20:36.571Z,6.57
2018-12-04T08:23:04.652Z,6.83
2018-12-04T08:25:33.086Z,5.27
2018-12-04T08:28:01.177Z,6.43
2018-12-04T08:30:31.597Z,6.43
2018-12-04T08:32:59.704Z,6.73
2018-12-04T08:35:27.786Z,6.23
2018-12-04T08:37:55.826Z,6.03
2018-12-04T08:40:23.879Z,6.17
2018-12-04T08:42:51.938Z,5.93
2018-12-04T08:45:20.083Z,6.17
2018-12-04T08:47:48.226Z,5.57
2018-12-04T08:50:16.283Z,7.33
2018-12-04T08:52:44.403Z,4.50
2018-12-04T08:55:12.539Z,5.20
2018-12-04T08:57:40.683Z,5.37
2018-12-04T09:00:08.859Z,6.30
2018-12-04T09:02:36.931Z,6.33
2018-12-04T09:05:05.693Z,6.57
2018-12-04T09:07:33.843Z,5.00
2018-12-04T09:10:01.891Z,4.60
2018-12-04T09:12:30.065Z,5.23
2018-12-04T09:14:58.211Z,4.83
2018-12-04T09:17:26.364Z,5.03
2018-12-04T09:19:58.082Z,5.60
2018-12-04T09:22:26.228Z,4.77
2018-12-04T09:24:54.375Z,4.73
2018-12-04T09:27:22.614Z,4.17
2018-12-04T09:29:50.823Z,4.53
2018-12-04T09:32:18.931Z,4.47
2018-12-04T09:34:47.008Z,4.50
2018-12-04T09:37:15.225Z,5.00
2018-12-04T09:39:43.321Z,5.10
2018-12-04T09:42:11.479Z,5.27
2018-12-04T09:44:39.667Z,4.00
2018-12-04T09:47:07.776Z,5.00
2018-12-04T09:49:35.990Z,5.67
2018-12-04T09:52:04.046Z,5.07
2018-12-04T09:54:32.179Z,5.30
2018-12-04T09:57:00.273Z,4.70
2018-12-04T09:59:28.442Z,5.80
2018-12-04T10:01:56.737Z,5.00
2018-12-04T10:04:24.783Z,4.77
2018-12-04T10:06:52.991Z,4.80
2018-12-04T10:09:21.026Z,4.47
2018-12-04T10:11:49.163Z,4.83
2018-12-04T10:14:17.230Z,5.10
2018-12-04T10:16:46.470Z,4.33
2018-12-04T10:19:24.454Z,4.23
2018-12-04T10:21:58.727Z,5.37
2018-12-04T10:24:26.878Z,3.70
2018-12-04T10:26:57.567Z,4.73
2018-12-04T10:29:25.817Z,3.77
2018-12-04T10:31:56.045Z,4.10
2018-12-04T10:34:23.924Z,4.47
2018-12-04T10:36:51.984Z,5.30
2018-12-04T10:39:20.599Z,4.33
2018-12-04T10:41:48.702Z,3.30
2018-12-04T10:44:16.795Z,3.57
2018-12-04T10:46:44.881Z,2.97
2018-12-04T10:49:12.938Z,3.50
2018-12-04T10:51:40.989Z,3.07
2018-12-04T10:54:09.098Z,4.37
2018-12-04T10:56:37.273Z,2.97
2018-12-04T10:59:05.403Z,3.13
2018-12-04T11:03:47.050Z,3.80
2018-12-04T11:06:15.103Z,3.87
2018-12-04T11:08:43.299Z,3.67
2018-12-04T11:11:11.495Z,3.17
2018-12-04T11:13:39.623Z,2.93
2018-12-04T11:16:07.750Z,2.97
2018-12-04T11:18:35.950Z,3.47
2018-12-04T11:21:06.135Z,3.17
2018-12-04T11:23:34.271Z,3.03
2018-12-04T11:26:02.364Z,3.07
2018-12-04T11:28:32.667Z,3.07
2018-12-04T11:31:00.767Z,3.03
2018-12-04T11:33:28.912Z,3.10
2018-12-04T11:35:57.130Z,2.90
2018-12-04T11:38:25.203Z,3.20
2018-12-04T11:40:53.385Z,5.20
2018-12-04T11:43:21.443Z,3.23
2018-12-04T11:45:49.563Z,4.10
2018-12-04T11:48:18.366Z,3.83
2018-12-04T11:50:46.414Z,3.23
2018-12-04T11:53:14.491Z,2.57
2018-12-04T11:55:42.543Z,3.17
2018-12-04T11:58:10.627Z,2.57
2018-12-04T12:00:38.791Z,3.20
2018-12-04T12:03:08.751Z,2.90
2018-12-04T12:05:36.815Z,2.70
2018-12-04T12:08:04.960Z,3.53
2018-12-04T12:10:33.049Z,2.67
2018-12-04T12:13:01.105Z,3.07
2018-12-04T12:15:29.195Z,2.40
2018-12-04T12:17:57.367Z,2.83
2018-12-04T12:20:25.387Z,2.80
2018-12-04T12:22:53.508Z,2.80
2018-12-04T12:25:21.704Z,2.67
2018-12-04T12:27:49.852Z,3.63
2018-12-04T12:30:17.975Z,2.40
2018-12-04T12:32:46.204Z,2.70
2018-12-04T12:35:14.348Z,3.10
2018-12-04T12:37:42.543Z,3.03
2018-12-04T12:40:10.579Z,2.77
2018-12-04T12:42:38.627Z,3.00
2018-12-04T12:45:08.258Z,2.20
2018-12-04T12:47:36.328Z,2.90
2018-12-04T12:50:04.815Z,2.90
2018-12-04T12:52:33.022Z,2.50
2018-12-04T12:55:02.156Z,2.50
2018-12-04T12:57:30.234Z,3.07
2018-12-04T12:59:58.335Z,2.17
2018-12-04T13:02:26.447Z,2.83
2018-12-04T13:04:54.551Z,2.07
2018-12-04T13:07:22.703Z,2.97
2018-12-04T13:09:50.792Z,3.07
2018-12-04T13:12:18.936Z,2.30
2018-12-04T13:14:47.097Z,2.00
2018-12-04T13:17:20.214Z,2.67
2018-12-04T13:19:48.367Z,2.50
2018-12-04T13:22:16.415Z,3.63
2018-12-04T13:24:44.689Z,2.50
2018-12-04T13:27:12.802Z,2.27
2018-12-04T13:29:40.853Z,2.40
2018-12-04T13:32:09.043Z,2.67
2018-12-04T13:34:37.196Z,2.90
2018-12-04T13:37:05.405Z,2.70
2018-12-04T13:39:33.535Z,2.23
2018-12-04T13:42:01.606Z,2.50
2018-12-04T13:44:29.828Z,2.83
2018-12-04T13:46:57.919Z,2.50
2018-12-04T13:49:26.002Z,2.80
2018-12-04T13:51:58.214Z,2.77
2018-12-04T13:54:26.460Z,2.67
2018-12-04T13:56:55.707Z,2.50
2018-12-04T13:59:24.004Z,2.00
2018-12-04T14:01:52.300Z,2.23
2018-12-04T14:04:20.525Z,2.20
2018-12-04T14:09:41.506Z,2.63
2018-12-04T14:12:09.725Z,2.30
2018-12-04T14:14:37.837Z,3.20
2018-12-04T14:17:06.931Z,2.23
2018-12-04T14:19:34.967Z,2.33
2018-12-04T14:22:03.017Z,2.87
2018-12-04T14:24:31.560Z,2.47
2018-12-04T14:26:59.644Z,1.90
2018-12-04T14:29:27.743Z,1.97
2018-12-04T14:31:56.101Z,2.10
2018-12-04T14:34:24.115Z,2.60
2018-12-04T14:36:52.366Z,1.87
2018-12-04T14:39:20.479Z,2.70
2018-12-04T14:41:48.901Z,2.30
2018-12-04T14:44:16.975Z,2.47
2018-12-04T14:46:45.076Z,2.23
2018-12-04T14:49:13.484Z,2.27
2018-12-04T14:51:41.493Z,2.70
2018-12-04T14:54:09.517Z,2.73
2018-12-04T14:56:37.626Z,2.10
2018-12-04T14:59:05.627Z,2.27
2018-12-04T15:01:33.742Z,2.20
2018-12-04T15:04:02.847Z,3.00
2018-12-04T15:06:32.042Z,2.93
2018-12-04T15:09:00.102Z,2.63
2018-12-04T15:11:28.225Z,3.50
2018-12-04T15:13:56.406Z,2.60
2018-12-04T15:16:24.517Z,3.23
2018-12-04T15:18:52.653Z,2.53
2018-12-04T15:21:20.936Z,2.07
2018-12-04T15:23:49.085Z,2.80
2018-12-04T15:26:18.582Z,1.77
2018-12-04T15:28:46.865Z,2.23
2018-12-04T15:31:15.056Z,2.77
2018-12-04T15:33:43.663Z,3.47
2018-12-04T15:36:11.865Z,2.53
2018-12-04T15:38:39.995Z,2.83
2018-12-04T15:41:08.153Z,2.33
2018-12-04T15:43:36.322Z,2.47
2018-12-04T15:46:04.475Z,5.00
2018-12-04T15:48:32.911Z,4.10
2018-12-04T15:51:01.269Z,2.60
2018-12-04T15:53:29.346Z,2.77
2018-12-04T15:55:57.422Z,2.70
2018-12-04T15:58:25.538Z,2.53
2018-12-04T16:00:53.738Z,3.10
2018-12-04T16:03:21.819Z,2.77
2018-12-04T16:05:49.866Z,2.97
2018-12-04T16:08:18.579Z,2.37
2018-12-04T16:10:46.889Z,2.30
2018-12-04T16:13:16.673Z,3.10
2018-12-04T16:15:44.882Z,3.13
2018-12-04T16:18:13.044Z,3.67
2018-12-04T16:20:41.312Z,3.03
2018-12-04T16:23:09.411Z,2.67
2018-12-04T16:25:37.590Z,3.03
2018-12-04T16:28:05.731Z,2.80
2018-12-04T16:30:33.909Z,3.00
2018-12-04T16:33:02.054Z,2.70
2018-12-04T16:35:30.128Z,3.43
2018-12-04T16:37:58.238Z,3.80
2018-12-04T16:40:27.438Z,3.37
2018-12-04T16:42:55.562Z,3.73
2018-12-04T16:45:23.669Z,3.27
2018-12-04T16:47:51.979Z,3.47
2018-12-04T16:50:20.043Z,3.30
2018-12-04T16:52:48.132Z,3.37
2018-12-04T16:55:16.279Z,3.77
2018-12-04T16:57:44.398Z,4.07
2018-12-04T17:00:12.735Z,4.27
2018-12-04T17:02:40.811Z,4.63
2018-12-04T17:05:09.102Z,4.47
2018-12-04T17:07:37.166Z,4.23
2018-12-04T17:10:06.231Z,5.10
2018-12-04T17:12:34.284Z,4.10
2018-12-04T17:15:02.593Z,4.10
2018-12-04T17:17:30.693Z,4.30
2018-12-04T17:19:58.758Z,4.17
2018-12-04T17:22:26.887Z,4.00
2018-12-04T17:24:55.151Z,3.73
2018-12-04T17:27:23.311Z,3.47
2018-12-04T17:29:51.429Z,3.70
2018-12-04T17:32:19.491Z,3.80
2018-12-04T17:34:47.541Z,3.17
2018-12-04T17:37:15.837Z,3.23
2018-12-04T17:39:44.104Z,2.97
2018-12-04T17:42:12.203Z,3.83
2018-12-04T17:44:40.483Z,4.23
2018-12-04T17:47:08.847Z,3.23
2018-12-04T17:49:36.940Z,3.40
2018-12-04T17:52:05.115Z,3.93
2018-12-04T17:54:33.328Z,3.97
2018-12-04T17:57:01.555Z,5.03
2018-12-04T17:59:29.755Z,4.23
2018-12-04T18:01:58.014Z,4.53
2018-12-04T18:04:26.257Z,4.03
2018-12-04T18:06:54.412Z,4.80
2018-12-04T18:09:22.475Z,5.87
2018-12-04T18:11:50.686Z,7.10
2018-12-04T18:14:18.809Z,11.73
2018-12-04T18:16:46.883Z,7.83
2018-12-04T18:19:15.034Z,10.97
2018-12-04T18:21:43.195Z,17.07
2018-12-04T18:24:11.567Z,16.40
2018-12-04T18:26:39.719Z,14.90
2018-12-04T18:29:08.342Z,18.75
2018-12-04T18:31:36.398Z,13.40
2018-12-04T18:34:05.607Z,11.33
2018-12-04T18:36:33.895Z,9.03
2018-12-04T18:39:02.338Z,9.60
2018-12-04T18:41:32.408Z,8.90
2018-12-04T18:44:01.404Z,8.07
2018-12-04T18:46:29.825Z,6.40
2018-12-04T18:48:58.050Z,7.00
2018-12-04T18:51:26.549Z,7.70
2018-12-04T18:53:54.996Z,7.33
2018-12-04T18:56:23.143Z,6.93
2018-12-04T18:58:51.361Z,6.53
2018-12-04T19:01:24.237Z,5.47
2018-12-04T19:03:52.370Z,6.07
2018-12-04T19:06:22.217Z,5.90
2018-12-04T19:08:50.742Z,6.00
2018-12-04T19:11:19.591Z,7.60
2018-12-04T19:13:47.708Z,5.67
2018-12-04T19:16:16.086Z,5.63
2018-12-04T19:18:44.455Z,4.87
2018-12-04T19:21:12.626Z,6.27
2018-12-04T19:23:40.881Z,5.67
2018-12-04T19:26:09.167Z,5.30
2018-12-04T19:28:37.351Z,6.10
2018-12-04T19:31:05.509Z,5.30
2018-12-04T19:33:33.591Z,5.60
2018-12-04T19:36:02.449Z,5.40
2018-12-04T19:38:30.859Z,5.97
2018-12-04T19:40:59.305Z,5.30
2018-12-04T19:43:27.412Z,5.53
2018-12-04T19:45:55.568Z,7.00
2018-12-04T19:48:23.774Z,6.23
2018-12-04T19:50:51.890Z,8.10
2018-12-04T20:01:39.000Z,9.17
2018-12-04T20:04:07.161Z,8.40
2018-12-04T20:06:35.384Z,7.67
2018-12-04T20:09:05.184Z,7.47
2018-12-04T20:11:33.951Z,7.17
2018-12-04T20:14:02.072Z,7.23
2018-12-04T20:16:30.444Z,7.27
2018-12-04T20:18:58.576Z,7.43
2018-12-04T20:21:26.704Z,7.47
2018-12-04T20:23:54.828Z,10.80
2018-12-04T20:26:22.988Z,11.53
2018-12-04T20:28:51.144Z,11.63
2018-12-04T20:31:19.307Z,13.67
2018-12-04T20:33:47.456Z,10.97
2018-12-04T20:36:17.455Z,11.27
2018-12-04T20:38:45.703Z,12.43
2018-12-04T20:41:14.262Z,12.87
2018-12-04T20:43:42.431Z,14.18
2018-12-04T20:46:10.576Z,14.23
2018-12-04T20:48:38.800Z,12.50
2018-12-04T20:51:06.993Z,12.60
2018-12-04T20:53:35.340Z,11.93
2018-12-04T20:56:03.751Z,12.73
2018-12-04T20:58:31.968Z,14.83
2018-12-04T21:01:00.293Z,11.70
2018-12-04T21:03:28.476Z,11.80
2018-12-04T21:05:56.766Z,11.43
2018-12-04T21:08:24.830Z,13.10
2018-12-04T21:10:53.378Z,12.10
2018-12-04T21:16:07.379Z,11.30
2018-12-04T21:18:35.434Z,11.17
2018-12-04T21:21:03.722Z,13.97
2018-12-04T21:23:31.859Z,13.43
2018-12-04T21:25:59.926Z,12.67
2018-12-04T21:28:28.011Z,12.70
2018-12-04T21:31:01.481Z,12.77
2018-12-04T21:33:35.083Z,12.53
2018-12-04T21:36:08.701Z,12.70
2018-12-04T21:38:42.235Z,12.23
2018-12-04T21:41:14.607Z,12.17
2018-12-04T21:43:48.193Z,12.17
2018-12-04T21:46:21.542Z,12.57
2018-12-04T21:48:49.777Z,12.30
2018-12-04T21:51:17.975Z,10.73
2018-12-04T21:53:46.150Z,12.37
2018-12-04T21:56:14.259Z,13.00
2018-12-04T21:58:42.335Z,11.60
2018-12-04T22:01:10.358Z,13.10
2018-12-04T22:03:38.435Z,12.53
2018-12-04T22:06:06.483Z,13.63
2018-12-04T22:08:34.559Z,13.03
2018-12-04T22:11:02.672Z,14.50
2018-12-04T22:13:30.803Z,14.93
2018-12-04T22:15:58.927Z,16.13
2018-12-04T22:18:26.998Z,14.97
2018-12-04T22:20:55.039Z,15.33
2018-12-04T22:23:23.128Z,16.90
2018-12-04T22:25:51.160Z,17.47
2018-12-04T22:28:19.305Z,18.93
2018-12-04T22:30:47.359Z,15.90
2018-12-04T22:33:15.490Z,17.60
2018-12-04T22:35:43.548Z,17.07
2018-12-04T22:38:11.595Z,18.03
2018-12-04T22:40:39.665Z,15.33
2018-12-04T22:43:07.779Z,14.20
2018-12-04T22:45:35.853Z,16.17
2018-12-04T22:48:03.976Z,15.13
2018-12-04T22:50:32.040Z,13.83
2018-12-04T22:53:00.111Z,14.17
2018-12-04T22:55:28.206Z,15.50
2018-12-04T22:57:56.256Z,14.07
2018-12-04T23:00:32.260Z,13.50
2018-12-04T23:03:00.303Z,14.33
2018-12-04T23:05:28.440Z,15.67
2018-12-04T23:07:56.520Z,14.97
2018-12-04T23:10:24.606Z,14.47
2018-12-04T23:12:52.647Z,15.60
2018-12-04T23:15:21.682Z,15.03
2018-12-04T23:17:49.955Z,14.70
2018-12-04T23:20:18.048Z,14.47
2018-12-04T23:22:46.111Z,13.67
2018-12-04T23:25:14.180Z,14.90
2018-12-04T23:27:42.231Z,15.50
2018-12-04T23:30:10.375Z,17.40
2018-12-04T23:32:38.436Z,16.80
2018-12-04T23:35:13.930Z,18.77
2018-12-04T23:37:42.024Z,16.70
2018-12-04T23:40:10.175Z,18.27
2018-12-04T23:42:38.275Z,17.40
2018-12-04T23:45:06.408Z,17.17
2018-12-04T23:47:34.429Z,17.53
2018-12-04T23:50:02.632Z,18.97
2018-12-04T23:52:36.199Z,18.17
2018-12-04T23:55:04.361Z,15.67
2018-12-04T23:57:32.443Z,16.13
